sensor_id;sensor_type;location;lat;lon;timestamp;pressure;altitude;pressure_sealevel;temperature;humidity
65718;BME280;52445;52.466;-1.016;2023-03-11T00:00:24;99541.19;;;-0.66;68.23
65718;BME280;52445;52.466;-1.016;2023-03-11T00:02:53;99545.53;;;-0.63;68.14
65718;BME280;52445;52.466;-1.016;2023-03-11T00:05:23;99543.78;;;-0.64;68.49
65718;BME280;52445;52.466;-1.016;2023-03-11T00:07:50;99548.06;;;-0.63;68.37
65718;BME280;52445;52.466;-1.016;2023-03-11T00:10:19;99548.91;;;-0.62;67.94
65718;BME280;52445;52.466;-1.016;2023-03-11T00:12:48;99535.34;;;-0.63;68.45
65718;BME280;52445;52.466;-1.016;2023-03-11T00:15:16;99528.56;;;-0.62;68.23
65718;BME280;52445;52.466;-1.016;2023-03-11T00:17:43;99533.69;;;-0.61;68.34
65718;BME280;52445;52.466;-1.016;2023-03-11T00:20:29;99529.44;;;-0.62;68.04
65718;BME280;52445;52.466;-1.016;2023-03-11T00:22:56;99534.56;;;-0.60;68.10
65718;BME280;52445;52.466;-1.016;2023-03-11T00:25:25;99531.16;;;-0.61;68.49
65718;BME280;52445;52.466;-1.016;2023-03-11T00:27:54;99547.25;;;-0.62;68.15
65718;BME280;52445;52.466;-1.016;2023-03-11T00:30:22;99539.56;;;-0.63;68.00
65718;BME280;52445;52.466;-1.016;2023-03-11T00:32:50;99543.78;;;-0.64;68.63
65718;BME280;52445;52.466;-1.016;2023-03-11T00:35:22;99542.88;;;-0.66;68.04
65718;BME280;52445;52.466;-1.016;2023-03-11T00:37:52;99543.69;;;-0.67;68.07
65718;BME280;52445;52.466;-1.016;2023-03-11T00:40:20;99535.06;;;-0.71;68.39
65718;BME280;52445;52.466;-1.016;2023-03-11T00:42:47;99533.28;;;-0.73;68.23
65718;BME280;52445;52.466;-1.016;2023-03-11T00:45:14;99538.25;;;-0.76;68.17
65718;BME280;52445;52.466;-1.016;2023-03-11T00:47:41;99536.53;;;-0.78;68.34
65718;BME280;52445;52.466;-1.016;2023-03-11T00:50:09;99540.75;;;-0.78;68.42
65718;BME280;52445;52.466;-1.016;2023-03-11T00:52:37;99523.75;;;-0.79;68.58
65718;BME280;52445;52.466;-1.016;2023-03-11T00:55:05;99532.22;;;-0.80;68.50
65718;BME280;52445;52.466;-1.016;2023-03-11T00:57:31;99538.19;;;-0.80;68.82
65718;BME280;52445;52.466;-1.016;2023-03-11T00:59:58;99536.41;;;-0.81;68.93
65718;BME280;52445;52.466;-1.016;2023-03-11T01:02:25;99530.50;;;-0.81;68.65
65718;BME280;52445;52.466;-1.016;2023-03-11T01:04:53;99527.88;;;-0.83;68.48
65718;BME280;52445;52.466;-1.016;2023-03-11T01:07:21;99537.19;;;-0.83;68.81
65718;BME280;52445;52.466;-1.016;2023-03-11T01:09:48;99536.31;;;-0.84;68.45
65718;BME280;52445;52.466;-1.016;2023-03-11T01:12:15;99539.66;;;-0.85;69.14
65718;BME280;52445;52.466;-1.016;2023-03-11T01:14:42;99539.63;;;-0.86;68.59
65718;BME280;52445;52.466;-1.016;2023-03-11T01:17:08;99540.50;;;-0.86;68.73
65718;BME280;52445;52.466;-1.016;2023-03-11T01:19:35;99530.25;;;-0.87;68.54
65718;BME280;52445;52.466;-1.016;2023-03-11T01:22:02;99531.13;;;-0.87;68.22
65718;BME280;52445;52.466;-1.016;2023-03-11T01:24:28;99534.47;;;-0.88;68.48
65718;BME280;52445;52.466;-1.016;2023-03-11T01:26:55;99534.47;;;-0.88;68.77
65718;BME280;52445;52.466;-1.016;2023-03-11T01:29:21;99536.16;;;-0.88;68.48
65718;BME280;52445;52.466;-1.016;2023-03-11T01:31:48;99540.44;;;-0.87;68.66
65718;BME280;52445;52.466;-1.016;2023-03-11T01:34:14;99539.56;;;-0.88;68.50
65718;BME280;52445;52.466;-1.016;2023-03-11T01:36:41;99533.63;;;-0.88;68.48
65718;BME280;52445;52.466;-1.016;2023-03-11T01:39:08;99526.00;;;-0.88;68.43
65718;BME280;52445;52.466;-1.016;2023-03-11T01:41:34;99522.56;;;-0.89;68.71
65718;BME280;52445;52.466;-1.016;2023-03-11T01:44:01;99526.78;;;-0.89;68.41
65718;BME280;52445;52.466;-1.016;2023-03-11T01:46:36;99522.56;;;-0.89;68.06
65718;BME280;52445;52.466;-1.016;2023-03-11T01:49:04;99531.03;;;-0.90;68.26
65718;BME280;52445;52.466;-1.016;2023-03-11T01:51:35;99534.38;;;-0.91;68.16
65718;BME280;52445;52.466;-1.016;2023-03-11T01:54:06;99525.00;;;-0.92;68.41
65718;BME280;52445;52.466;-1.016;2023-03-11T01:56:36;99524.09;;;-0.94;68.37
65718;BME280;52445;52.466;-1.016;2023-03-11T01:59:05;99525.72;;;-0.96;68.56
65718;BME280;52445;52.466;-1.016;2023-03-11T02:01:34;99522.25;;;-0.98;68.74
65718;BME280;52445;52.466;-1.016;2023-03-11T02:04:04;99515.41;;;-1.01;68.36
65718;BME280;52445;52.466;-1.016;2023-03-11T02:06:31;99525.50;;;-1.02;68.35
65718;BME280;52445;52.466;-1.016;2023-03-11T02:08:59;99516.94;;;-1.05;68.57
65718;BME280;52445;52.466;-1.016;2023-03-11T02:11:27;99509.22;;;-1.08;68.45
65718;BME280;52445;52.466;-1.016;2023-03-11T02:13:59;99500.63;;;-1.11;68.36
65718;BME280;52445;52.466;-1.016;2023-03-11T02:16:27;99499.63;;;-1.15;68.24
65718;BME280;52445;52.466;-1.016;2023-03-11T02:18:57;99502.09;;;-1.18;68.49
65718;BME280;52445;52.466;-1.016;2023-03-11T02:21:28;99499.44;;;-1.21;68.43
65718;BME280;52445;52.466;-1.016;2023-03-11T02:24:03;99490.88;;;-1.23;68.47
65718;BME280;52445;52.466;-1.016;2023-03-11T02:26:40;99504.34;;;-1.26;68.36
65718;BME280;52445;52.466;-1.016;2023-03-11T02:29:10;99500.00;;;-1.28;68.42
65718;BME280;52445;52.466;-1.016;2023-03-11T02:31:37;99496.50;;;-1.32;68.15
65718;BME280;52445;52.466;-1.016;2023-03-11T02:34:15;99487.94;;;-1.34;68.27
65718;BME280;52445;52.466;-1.016;2023-03-11T02:36:44;99487.81;;;-1.37;68.57
65718;BME280;52445;52.466;-1.016;2023-03-11T02:39:10;99489.41;;;-1.41;68.62
65718;BME280;52445;52.466;-1.016;2023-03-11T02:41:39;99493.50;;;-1.45;68.45
65718;BME280;52445;52.466;-1.016;2023-03-11T02:44:09;99490.00;;;-1.48;68.78
65718;BME280;52445;52.466;-1.016;2023-03-11T02:46:38;99494.03;;;-1.53;68.83
65718;BME280;52445;52.466;-1.016;2023-03-11T02:49:07;99491.38;;;-1.57;68.29
65718;BME280;52445;52.466;-1.016;2023-03-11T02:51:34;99487.84;;;-1.60;68.49
65718;BME280;52445;52.466;-1.016;2023-03-11T02:54:03;99481.78;;;-1.64;68.38
65718;BME280;52445;52.466;-1.016;2023-03-11T02:56:30;99479.13;;;-1.67;68.97
65718;BME280;52445;52.466;-1.016;2023-03-11T02:58:57;99479.94;;;-1.68;68.87
65718;BME280;52445;52.466;-1.016;2023-03-11T03:01:24;99478.22;;;-1.69;68.74
65718;BME280;52445;52.466;-1.016;2023-03-11T03:03:50;99474.88;;;-1.68;68.60
65718;BME280;52445;52.466;-1.016;2023-03-11T03:06:17;99475.69;;;-1.69;68.78
65718;BME280;52445;52.466;-1.016;2023-03-11T03:08:44;99476.47;;;-1.70;69.25
65718;BME280;52445;52.466;-1.016;2023-03-11T03:11:10;99477.28;;;-1.71;68.97
65718;BME280;52445;52.466;-1.016;2023-03-11T03:13:37;99477.22;;;-1.73;68.84
65718;BME280;52445;52.466;-1.016;2023-03-11T03:16:04;99485.66;;;-1.74;68.79
65718;BME280;52445;52.466;-1.016;2023-03-11T03:18:31;99478.81;;;-1.76;68.94
65718;BME280;52445;52.466;-1.016;2023-03-11T03:20:57;99475.31;;;-1.78;69.21
65718;BME280;52445;52.466;-1.016;2023-03-11T03:23:24;99475.19;;;-1.82;69.17
65718;BME280;52445;52.466;-1.016;2023-03-11T03:25:50;99473.47;;;-1.83;69.58
65718;BME280;52445;52.466;-1.016;2023-03-11T03:28:17;99471.75;;;-1.84;68.87
65718;BME280;52445;52.466;-1.016;2023-03-11T03:30:44;99474.28;;;-1.84;68.75
65718;BME280;52445;52.466;-1.016;2023-03-11T03:33:11;99479.50;;;-1.81;69.64
65718;BME280;52445;52.466;-1.016;2023-03-11T03:35:41;99476.06;;;-1.81;69.31
65718;BME280;52445;52.466;-1.016;2023-03-11T03:38:08;99488.91;;;-1.78;69.20
65718;BME280;52445;52.466;-1.016;2023-03-11T03:40:34;99492.41;;;-1.74;69.10
65718;BME280;52445;52.466;-1.016;2023-03-11T03:43:02;99494.13;;;-1.73;68.86
65718;BME280;52445;52.466;-1.016;2023-03-11T03:45:29;99499.31;;;-1.70;69.19
65718;BME280;52445;52.466;-1.016;2023-03-11T03:47:55;99492.66;;;-1.68;69.19
65718;BME280;52445;52.466;-1.016;2023-03-11T03:50:22;99502.94;;;-1.65;68.75
65718;BME280;52445;52.466;-1.016;2023-03-11T03:52:49;99492.00;;;-1.62;69.19
65718;BME280;52445;52.466;-1.016;2023-03-11T03:55:16;99492.97;;;-1.59;68.60
65718;BME280;52445;52.466;-1.016;2023-03-11T03:57:42;99491.44;;;-1.55;69.02
65718;BME280;52445;52.466;-1.016;2023-03-11T04:00:09;99493.22;;;-1.52;68.69
65718;BME280;52445;52.466;-1.016;2023-03-11T04:02:36;99494.94;;;-1.51;68.57
65718;BME280;52445;52.466;-1.016;2023-03-11T04:05:03;99500.16;;;-1.48;69.14
65718;BME280;52445;52.466;-1.016;2023-03-11T04:07:32;99494.25;;;-1.47;69.38
65718;BME280;52445;52.466;-1.016;2023-03-11T04:09:59;99494.31;;;-1.46;69.03
65718;BME280;52445;52.466;-1.016;2023-03-11T04:12:26;99493.56;;;-1.43;69.09
65718;BME280;52445;52.466;-1.016;2023-03-11T04:14:53;99506.38;;;-1.40;69.33
65718;BME280;52445;52.466;-1.016;2023-03-11T04:17:19;99503.94;;;-1.37;69.12
65718;BME280;52445;52.466;-1.016;2023-03-11T04:19:46;99500.59;;;-1.36;69.25
65718;BME280;52445;52.466;-1.016;2023-03-11T04:22:12;99504.06;;;-1.34;69.24
65718;BME280;52445;52.466;-1.016;2023-03-11T04:24:39;99502.44;;;-1.32;69.05
65718;BME280;52445;52.466;-1.016;2023-03-11T04:27:06;99500.00;;;-1.28;68.95
65718;BME280;52445;52.466;-1.016;2023-03-11T04:29:32;99498.44;;;-1.25;69.25
65718;BME280;52445;52.466;-1.016;2023-03-11T04:31:59;99506.16;;;-1.22;68.54
65718;BME280;52445;52.466;-1.016;2023-03-11T04:34:25;99505.34;;;-1.21;68.71
65718;BME280;52445;52.466;-1.016;2023-03-11T04:36:53;99499.53;;;-1.18;68.63
65718;BME280;52445;52.466;-1.016;2023-03-11T04:39:19;99502.13;;;-1.17;69.29
65718;BME280;52445;52.466;-1.016;2023-03-11T04:41:46;99505.59;;;-1.14;68.85
65718;BME280;52445;52.466;-1.016;2023-03-11T04:44:13;99508.19;;;-1.13;69.04
65718;BME280;52445;52.466;-1.016;2023-03-11T04:46:39;99503.22;;;-1.10;68.96
65718;BME280;52445;52.466;-1.016;2023-03-11T04:49:06;99499.84;;;-1.09;68.46
65718;BME280;52445;52.466;-1.016;2023-03-11T04:51:33;99518.59;;;-1.07;68.73
65718;BME280;52445;52.466;-1.016;2023-03-11T04:54:00;99517.78;;;-1.06;68.90
65718;BME280;52445;52.466;-1.016;2023-03-11T04:56:26;99524.63;;;-1.03;69.32
65718;BME280;52445;52.466;-1.016;2023-03-11T04:58:53;99522.91;;;-1.04;68.80
65718;BME280;52445;52.466;-1.016;2023-03-11T05:01:19;99523.75;;;-1.04;69.30
65718;BME280;52445;52.466;-1.016;2023-03-11T05:03:46;99528.84;;;-1.04;68.55
65718;BME280;52445;52.466;-1.016;2023-03-11T05:06:13;99528.84;;;-1.04;68.89
65718;BME280;52445;52.466;-1.016;2023-03-11T05:08:39;99535.69;;;-1.02;68.88
65718;BME280;52445;52.466;-1.016;2023-03-11T05:11:06;99531.38;;;-1.04;69.13
65718;BME280;52445;52.466;-1.016;2023-03-11T05:13:34;99536.47;;;-1.04;69.21
65718;BME280;52445;52.466;-1.016;2023-03-11T05:16:00;99534.75;;;-1.05;68.94
65718;BME280;52445;52.466;-1.016;2023-03-11T05:18:27;99539.81;;;-1.05;68.93
65718;BME280;52445;52.466;-1.016;2023-03-11T05:20:55;99542.38;;;-1.05;69.01
65718;BME280;52445;52.466;-1.016;2023-03-11T05:23:21;99539.00;;;-1.04;69.27
65718;BME280;52445;52.466;-1.016;2023-03-11T05:25:48;99548.44;;;-1.01;69.21
65718;BME280;52445;52.466;-1.016;2023-03-11T05:28:14;99545.91;;;-1.01;68.73
65718;BME280;52445;52.466;-1.016;2023-03-11T05:30:41;99544.22;;;-1.00;68.76
65718;BME280;52445;52.466;-1.016;2023-03-11T05:33:08;99536.59;;;-1.00;69.05
65718;BME280;52445;52.466;-1.016;2023-03-11T05:35:34;99539.19;;;-0.99;69.29
65718;BME280;52445;52.466;-1.016;2023-03-11T05:38:01;99536.69;;;-0.97;69.13
65718;BME280;52445;52.466;-1.016;2023-03-11T05:40:28;99530.78;;;-0.96;69.29
65718;BME280;52445;52.466;-1.016;2023-03-11T05:42:54;99542.72;;;-0.95;69.07
65718;BME280;52445;52.466;-1.016;2023-03-11T05:45:21;99551.25;;;-0.93;69.13
65718;BME280;52445;52.466;-1.016;2023-03-11T05:47:47;99547.88;;;-0.92;69.40
65718;BME280;52445;52.466;-1.016;2023-03-11T05:50:14;99544.56;;;-0.91;68.82
65718;BME280;52445;52.466;-1.016;2023-03-11T05:52:40;99536.13;;;-0.90;69.08
65718;BME280;52445;52.466;-1.016;2023-03-11T05:55:07;99534.47;;;-0.88;69.16
65718;BME280;52445;52.466;-1.016;2023-03-11T05:57:37;99545.53;;;-0.87;69.27
65718;BME280;52445;52.466;-1.016;2023-03-11T06:00:06;99549.78;;;-0.86;69.59
65718;BME280;52445;52.466;-1.016;2023-03-11T06:02:39;99557.47;;;-0.85;69.14
65718;BME280;52445;52.466;-1.016;2023-03-11T06:05:06;99567.69;;;-0.83;69.23
65718;BME280;52445;52.466;-1.016;2023-03-11T06:07:34;99577.94;;;-0.82;69.49
65718;BME280;52445;52.466;-1.016;2023-03-11T06:10:02;99573.66;;;-0.83;69.58
65718;BME280;52445;52.466;-1.016;2023-03-11T06:12:28;99572.84;;;-0.82;69.12
65718;BME280;52445;52.466;-1.016;2023-03-11T06:14:55;99583.91;;;-0.81;69.17
65718;BME280;52445;52.466;-1.016;2023-03-11T06:17:22;99594.97;;;-0.79;69.44
65718;BME280;52445;52.466;-1.016;2023-03-11T06:19:48;99574.63;;;-0.79;69.33
65718;BME280;52445;52.466;-1.016;2023-03-11T06:22:15;99589.13;;;-0.76;69.40
65718;BME280;52445;52.466;-1.016;2023-03-11T06:24:41;99595.09;;;-0.76;69.33
65718;BME280;52445;52.466;-1.016;2023-03-11T06:27:08;99588.34;;;-0.75;69.51
65718;BME280;52445;52.466;-1.016;2023-03-11T06:29:36;99589.19;;;-0.75;69.27
65718;BME280;52445;52.466;-1.016;2023-03-11T06:32:03;99598.56;;;-0.74;69.32
65718;BME280;52445;52.466;-1.016;2023-03-11T06:34:30;99604.50;;;-0.73;69.54
65718;BME280;52445;52.466;-1.016;2023-03-11T06:36:56;99601.13;;;-0.72;69.36
65718;BME280;52445;52.466;-1.016;2023-03-11T06:39:24;99606.22;;;-0.72;69.65
65718;BME280;52445;52.466;-1.016;2023-03-11T06:41:51;99606.34;;;-0.69;69.56
65718;BME280;52445;52.466;-1.016;2023-03-11T06:44:18;99609.81;;;-0.67;69.71
65718;BME280;52445;52.466;-1.016;2023-03-11T06:46:44;99596.28;;;-0.66;69.17
65718;BME280;52445;52.466;-1.016;2023-03-11T06:49:11;99586.97;;;-0.66;69.54
65718;BME280;52445;52.466;-1.016;2023-03-11T06:51:37;99580.25;;;-0.63;69.12
65718;BME280;52445;52.466;-1.016;2023-03-11T06:54:04;99580.38;;;-0.60;69.67
65718;BME280;52445;52.466;-1.016;2023-03-11T06:56:30;99579.59;;;-0.58;69.47
65718;BME280;52445;52.466;-1.016;2023-03-11T06:58:57;99575.44;;;-0.56;69.42
65718;BME280;52445;52.466;-1.016;2023-03-11T07:01:24;99574.75;;;-0.52;69.34
65718;BME280;52445;52.466;-1.016;2023-03-11T07:03:51;99584.16;;;-0.49;69.44
65718;BME280;52445;52.466;-1.016;2023-03-11T07:06:21;99583.38;;;-0.46;69.43
65718;BME280;52445;52.466;-1.016;2023-03-11T07:08:49;99587.72;;;-0.44;69.77
65718;BME280;52445;52.466;-1.016;2023-03-11T07:13:54;99590.44;;;-0.39;69.29
65718;BME280;52445;52.466;-1.016;2023-03-11T07:16:24;99584.56;;;-0.36;69.38
65718;BME280;52445;52.466;-1.016;2023-03-11T07:18:53;99594.09;;;-0.31;69.49
65718;BME280;52445;52.466;-1.016;2023-03-11T07:21:21;99597.66;;;-0.26;69.15
65718;BME280;52445;52.466;-1.016;2023-03-11T07:23:53;99596.09;;;-0.22;69.31
65718;BME280;52445;52.466;-1.016;2023-03-11T07:26:21;99596.25;;;-0.17;69.36
65718;BME280;52445;52.466;-1.016;2023-03-11T07:28:47;99586.25;;;-0.11;69.72
65718;BME280;52445;52.466;-1.016;2023-03-11T07:31:19;99584.75;;;-0.06;68.77
65718;BME280;52445;52.466;-1.016;2023-03-11T07:33:46;99586.53;;;-0.03;68.98
65718;BME280;52445;52.466;-1.016;2023-03-11T07:36:16;99578.13;;;-0.01;69.54
65718;BME280;52445;52.466;-1.016;2023-03-11T07:38:44;99577.19;;;-0.03;69.54
65718;BME280;52445;52.466;-1.016;2023-03-11T07:41:12;99590.03;;;0.01;69.06
65718;BME280;52445;52.466;-1.016;2023-03-11T07:43:41;99591.78;;;0.03;69.26
65718;BME280;52445;52.466;-1.016;2023-03-11T07:48:45;99581.00;;;0.10;69.54
65718;BME280;52445;52.466;-1.016;2023-03-11T07:51:15;99586.31;;;0.17;69.02
65718;BME280;52445;52.466;-1.016;2023-03-11T07:53:42;99583.88;;;0.21;69.49
65718;BME280;52445;52.466;-1.016;2023-03-11T07:56:11;99590.06;;;0.28;69.60
65718;BME280;52445;52.466;-1.016;2023-03-11T07:58:38;99580.91;;;0.35;69.37
65718;BME280;52445;52.466;-1.016;2023-03-11T08:01:07;99587.94;;;0.42;68.75
65718;BME280;52445;52.466;-1.016;2023-03-11T08:03:35;99595.06;;;0.54;68.86
65718;BME280;52445;52.466;-1.016;2023-03-11T08:06:02;99602.25;;;0.66;69.70
65718;BME280;52445;52.466;-1.016;2023-03-11T08:08:29;99600.78;;;0.74;68.68
65718;BME280;52445;52.466;-1.016;2023-03-11T08:10:56;99608.75;;;0.85;69.54
65718;BME280;52445;52.466;-1.016;2023-03-11T08:13:22;99612.56;;;1.00;69.54
65718;BME280;52445;52.466;-1.016;2023-03-11T08:15:49;99625.00;;;1.18;69.29
65718;BME280;52445;52.466;-1.016;2023-03-11T08:18:15;99623.94;;;1.40;69.01
65718;BME280;52445;52.466;-1.016;2023-03-11T08:20:42;99620.63;;;1.77;69.23
65718;BME280;52445;52.466;-1.016;2023-03-11T08:23:11;99616.00;;;2.68;68.97
65718;BME280;52445;52.466;-1.016;2023-03-11T08:25:39;99604.28;;;3.66;68.99
65718;BME280;52445;52.466;-1.016;2023-03-11T08:28:06;99585.00;;;4.37;68.02
65718;BME280;52445;52.466;-1.016;2023-03-11T08:30:34;99595.00;;;4.82;66.21
65718;BME280;52445;52.466;-1.016;2023-03-11T08:33:01;99592.53;;;4.88;65.04
65718;BME280;52445;52.466;-1.016;2023-03-11T08:35:28;99590.56;;;4.69;64.59
65718;BME280;52445;52.466;-1.016;2023-03-11T08:37:54;99579.13;;;4.48;65.05
65718;BME280;52445;52.466;-1.016;2023-03-11T08:40:21;99586.72;;;4.40;65.29
65718;BME280;52445;52.466;-1.016;2023-03-11T08:42:48;99586.94;;;4.54;65.08
65718;BME280;52445;52.466;-1.016;2023-03-11T08:45:15;99591.47;;;4.74;64.53
65718;BME280;52445;52.466;-1.016;2023-03-11T08:47:41;99588.06;;;4.75;64.42
65718;BME280;52445;52.466;-1.016;2023-03-11T08:50:12;99590.41;;;4.59;63.23
65718;BME280;52445;52.466;-1.016;2023-03-11T08:52:40;99593.44;;;4.33;61.24
65718;BME280;52445;52.466;-1.016;2023-03-11T08:55:07;99595.03;;;4.25;62.87
65718;BME280;52445;52.466;-1.016;2023-03-11T08:57:36;99591.44;;;4.14;62.91
65718;BME280;52445;52.466;-1.016;2023-03-11T09:00:05;99597.28;;;4.05;62.14
65718;BME280;52445;52.466;-1.016;2023-03-11T09:02:34;99598.25;;;4.11;62.98
65718;BME280;52445;52.466;-1.016;2023-03-11T09:05:00;99594.19;;;4.24;62.16
65718;BME280;52445;52.466;-1.016;2023-03-11T09:07:27;99596.97;;;4.39;61.45
65718;BME280;52445;52.466;-1.016;2023-03-11T09:09:54;99609.22;;;4.58;61.22
65718;BME280;52445;52.466;-1.016;2023-03-11T09:12:20;99602.63;;;4.74;61.08
65718;BME280;52445;52.466;-1.016;2023-03-11T09:14:47;99601.84;;;4.83;61.30
65718;BME280;52445;52.466;-1.016;2023-03-11T09:17:14;99598.53;;;4.91;60.52
65718;BME280;52445;52.466;-1.016;2023-03-11T09:19:42;99599.47;;;4.96;61.09
65718;BME280;52445;52.466;-1.016;2023-03-11T09:22:09;99593.63;;;5.09;60.37
65718;BME280;52445;52.466;-1.016;2023-03-11T09:24:36;99594.53;;;5.14;59.85
65718;BME280;52445;52.466;-1.016;2023-03-11T09:27:04;99590.28;;;5.15;60.51
65718;BME280;52445;52.466;-1.016;2023-03-11T09:29:30;99592.00;;;5.16;59.03
65718;BME280;52445;52.466;-1.016;2023-03-11T09:31:58;99595.66;;;5.38;59.73
65718;BME280;52445;52.466;-1.016;2023-03-11T09:34:25;99595.16;;;5.69;58.68
65718;BME280;52445;52.466;-1.016;2023-03-11T09:36:52;99600.69;;;6.11;57.81
65718;BME280;52445;52.466;-1.016;2023-03-11T09:39:18;99583.75;;;6.38;57.58
65718;BME280;52445;52.466;-1.016;2023-03-11T09:41:53;99594.06;;;6.41;56.77
65718;BME280;52445;52.466;-1.016;2023-03-11T09:44:42;99592.47;;;6.62;55.58
65718;BME280;52445;52.466;-1.016;2023-03-11T09:57:59;99580.03;;;8.14;54.13
65718;BME280;52445;52.466;-1.016;2023-03-11T10:00:27;99576.59;;;8.21;52.42
65718;BME280;52445;52.466;-1.016;2023-03-11T10:02:54;99579.16;;;8.32;53.03
65718;BME280;52445;52.466;-1.016;2023-03-11T10:05:25;99579.19;;;8.54;52.73
65718;BME280;52445;52.466;-1.016;2023-03-11T10:10:39;99577.22;;;9.21;51.30
65718;BME280;52445;52.466;-1.016;2023-03-11T10:13:14;99567.41;;;9.76;52.00
65718;BME280;52445;52.466;-1.016;2023-03-11T10:18:44;99571.41;;;10.18;50.95
65718;BME280;52445;52.466;-1.016;2023-03-11T10:24:37;99564.31;;;11.17;50.35
65718;BME280;52445;52.466;-1.016;2023-03-11T10:27:14;99566.38;;;11.56;47.92
65718;BME280;52445;52.466;-1.016;2023-03-11T10:30:05;99574.84;;;11.68;48.35
65718;BME280;52445;52.466;-1.016;2023-03-11T10:32:40;99569.78;;;11.62;47.25
65718;BME280;52445;52.466;-1.016;2023-03-11T10:37:57;99569.84;;;11.55;46.46
65718;BME280;52445;52.466;-1.016;2023-03-11T10:40:29;99575.09;;;11.52;47.63
65718;BME280;52445;52.466;-1.016;2023-03-11T10:42:59;99571.44;;;11.66;48.58
65718;BME280;52445;52.466;-1.016;2023-03-11T10:45:34;99567.69;;;11.86;47.09
65718;BME280;52445;52.466;-1.016;2023-03-11T10:48:07;99569.25;;;11.96;45.68
65718;BME280;52445;52.466;-1.016;2023-03-11T10:50:34;99561.16;;;12.16;46.71
65718;BME280;52445;52.466;-1.016;2023-03-11T10:53:05;99559.22;;;12.28;46.27
65718;BME280;52445;52.466;-1.016;2023-03-11T10:55:32;99552.19;;;12.34;46.11
65718;BME280;52445;52.466;-1.016;2023-03-11T10:58:11;99546.69;;;12.01;44.23
65718;BME280;52445;52.466;-1.016;2023-03-11T11:00:38;99554.06;;;11.71;44.23
65718;BME280;52445;52.466;-1.016;2023-03-11T11:03:13;99563.16;;;11.42;45.31
65718;BME280;52445;52.466;-1.016;2023-03-11T11:05:42;99565.84;;;11.32;46.12
65718;BME280;52445;52.466;-1.016;2023-03-11T11:08:13;99561.75;;;11.16;44.79
65718;BME280;52445;52.466;-1.016;2023-03-11T11:10:51;99578.28;;;11.07;46.28
65718;BME280;52445;52.466;-1.016;2023-03-11T11:13:20;99577.47;;;11.02;46.42
65718;BME280;52445;52.466;-1.016;2023-03-11T11:15:55;99561.94;;;11.02;46.52
65718;BME280;52445;52.466;-1.016;2023-03-11T11:23:43;99559.69;;;10.72;46.30
65718;BME280;52445;52.466;-1.016;2023-03-11T11:31:47;99545.94;;;9.65;46.87
65718;BME280;52445;52.466;-1.016;2023-03-11T11:37:02;99549.69;;;9.17;47.77
65718;BME280;52445;52.466;-1.016;2023-03-11T11:39:39;99560.97;;;8.94;47.76
65718;BME280;52445;52.466;-1.016;2023-03-11T11:42:11;99555.00;;;8.80;48.49
65718;BME280;52445;52.466;-1.016;2023-03-11T11:44:40;99554.09;;;8.84;48.38
65718;BME280;52445;52.466;-1.016;2023-03-11T11:47:28;99564.47;;;8.78;48.23
65718;BME280;52445;52.466;-1.016;2023-03-11T11:49:58;99558.50;;;8.66;48.05
65718;BME280;52445;52.466;-1.016;2023-03-11T11:52:30;99549.91;;;8.55;48.33
65718;BME280;52445;52.466;-1.016;2023-03-11T11:55:02;99551.63;;;8.60;49.72
65718;BME280;52445;52.466;-1.016;2023-03-11T11:57:30;99549.00;;;8.71;49.09
65718;BME280;52445;52.466;-1.016;2023-03-11T11:59:57;99557.63;;;8.72;48.71
65718;BME280;52445;52.466;-1.016;2023-03-11T12:05:13;99550.69;;;8.72;49.22
65718;BME280;52445;52.466;-1.016;2023-03-11T12:07:52;99540.31;;;8.88;49.68
65718;BME280;52445;52.466;-1.016;2023-03-11T12:27:17;99516.31;;;8.72;49.48
65718;BME280;52445;52.466;-1.016;2023-03-11T12:29:50;99513.72;;;8.67;49.26
65718;BME280;52445;52.466;-1.016;2023-03-11T12:32:24;99521.47;;;8.67;49.02
65718;BME280;52445;52.466;-1.016;2023-03-11T12:35:00;99513.72;;;8.64;49.86
65718;BME280;52445;52.466;-1.016;2023-03-11T12:37:27;99511.13;;;8.70;49.55
65718;BME280;52445;52.466;-1.016;2023-03-11T12:39:53;99510.28;;;8.53;49.20
65718;BME280;52445;52.466;-1.016;2023-03-11T12:42:21;99513.75;;;8.48;49.85
65718;BME280;52445;52.466;-1.016;2023-03-11T12:44:50;99512.91;;;8.48;49.74
65718;BME280;52445;52.466;-1.016;2023-03-11T12:47:25;99513.81;;;8.27;48.11
65718;BME280;52445;52.466;-1.016;2023-03-11T12:49:57;99508.66;;;8.14;49.15
65718;BME280;52445;52.466;-1.016;2023-03-11T12:52:57;99500.94;;;8.02;50.76
65718;BME280;52445;52.466;-1.016;2023-03-11T12:55:29;99500.09;;;7.90;50.89
65718;BME280;52445;52.466;-1.016;2023-03-11T12:58:03;99499.19;;;8.13;51.65
65718;BME280;52445;52.466;-1.016;2023-03-11T13:00:52;99494.88;;;8.18;50.91
65718;BME280;52445;52.466;-1.016;2023-03-11T13:08:46;99494.84;;;8.40;50.88
65718;BME280;52445;52.466;-1.016;2023-03-11T13:11:35;99486.28;;;8.35;49.89
65718;BME280;52445;52.466;-1.016;2023-03-11T13:14:28;99487.16;;;8.23;50.72
65718;BME280;52445;52.466;-1.016;2023-03-11T13:16:57;99470.81;;;8.13;50.67
65718;BME280;52445;52.466;-1.016;2023-03-11T13:19:47;99469.97;;;8.03;51.00
65718;BME280;52445;52.466;-1.016;2023-03-11T13:25:32;99476.88;;;7.95;50.97
65718;BME280;52445;52.466;-1.016;2023-03-11T13:42:44;99445.03;;;8.18;51.49
65718;BME280;52445;52.466;-1.016;2023-03-11T13:45:24;99443.31;;;8.12;51.88
65718;BME280;52445;52.466;-1.016;2023-03-11T13:47:57;99438.16;;;8.09;51.53
65718;BME280;52445;52.466;-1.016;2023-03-11T13:50:30;99439.91;;;8.07;52.40
65718;BME280;52445;52.466;-1.016;2023-03-11T13:52:58;99439.03;;;8.09;52.42
65718;BME280;52445;52.466;-1.016;2023-03-11T13:55:33;99445.03;;;8.10;51.02
65718;BME280;52445;52.466;-1.016;2023-03-11T13:58:13;99427.88;;;7.98;51.80
65718;BME280;52445;52.466;-1.016;2023-03-11T14:00:52;99423.59;;;7.89;51.70
65718;BME280;52445;52.466;-1.016;2023-03-11T14:03:20;99419.31;;;7.69;51.61
65718;BME280;52445;52.466;-1.016;2023-03-11T14:05:55;99406.44;;;7.51;52.78
65718;BME280;52445;52.466;-1.016;2023-03-11T14:08:31;99404.75;;;7.51;52.05
65718;BME280;52445;52.466;-1.016;2023-03-11T14:13:40;99400.44;;;7.42;52.96
65718;BME280;52445;52.466;-1.016;2023-03-11T14:16:12;99403.88;;;7.38;53.27
65718;BME280;52445;52.466;-1.016;2023-03-11T14:18:44;99397.88;;;7.45;52.58
65718;BME280;52445;52.466;-1.016;2023-03-11T14:21:17;99397.88;;;7.47;52.87
65718;BME280;52445;52.466;-1.016;2023-03-11T14:23:48;99393.56;;;7.49;52.74
65718;BME280;52445;52.466;-1.016;2023-03-11T14:26:19;99391.84;;;7.50;53.44
65718;BME280;52445;52.466;-1.016;2023-03-11T14:28:50;99397.03;;;7.37;53.42